createdAt,value
2022-11-28T00:01:22.677Z,7.24
2022-11-28T00:03:49.220Z,7.25
2022-11-28T00:06:16.444Z,7.22
2022-11-28T00:08:43.256Z,7.26
2022-11-28T00:11:14.561Z,7.29
2022-11-28T00:13:42.034Z,7.28
2022-11-28T00:16:12.700Z,7.28
2022-11-28T00:18:39.204Z,7.29
2022-11-28T00:21:08.945Z,7.31
2022-11-28T00:23:35.699Z,7.31
2022-11-28T00:26:05.463Z,7.31
2022-11-28T00:28:32.236Z,7.36
2022-11-28T00:30:58.617Z,7.41
2022-11-28T00:33:25.248Z,7.41
2022-11-28T00:35:51.835Z,7.43
2022-11-28T00:38:18.236Z,7.44
2022-11-28T00:40:44.759Z,7.49
2022-11-28T00:43:12.788Z,7.47
2022-11-28T00:45:39.346Z,7.48
2022-11-28T00:48:05.841Z,7.49
2022-11-28T00:50:32.335Z,7.54
2022-11-28T00:52:58.766Z,7.57
2022-11-28T00:55:25.132Z,7.56
2022-11-28T00:57:51.472Z,7.53
2022-11-28T01:00:18.231Z,7.54
2022-11-28T01:02:44.787Z,7.52
2022-11-28T01:05:11.410Z,7.56
2022-11-28T01:07:42.161Z,7.58
2022-11-28T01:10:10.851Z,7.61
2022-11-28T01:12:37.385Z,7.61
2022-11-28T01:15:05.924Z,7.55
2022-11-28T01:17:32.348Z,7.54
2022-11-28T01:19:58.721Z,7.57
2022-11-28T01:22:25.129Z,7.58
2022-11-28T01:24:51.604Z,7.58
2022-11-28T01:27:17.996Z,7.60
2022-11-28T01:29:44.467Z,7.59
2022-11-28T01:32:10.833Z,7.57
2022-11-28T01:34:37.265Z,7.56
2022-11-28T01:37:03.667Z,7.59
2022-11-28T01:39:30.012Z,7.59
2022-11-28T01:41:56.450Z,7.60
2022-11-28T01:44:22.828Z,7.60
2022-11-28T01:46:49.234Z,7.64
2022-11-28T01:49:18.852Z,7.67
2022-11-28T01:51:51.085Z,7.70
2022-11-28T01:54:19.868Z,7.73
2022-11-28T01:56:54.918Z,7.64
2022-11-28T01:59:26.431Z,7.64
2022-11-28T02:01:53.285Z,7.69
2022-11-28T02:04:20.255Z,7.76
2022-11-28T02:06:46.719Z,7.77
2022-11-28T02:09:15.123Z,7.79
2022-11-28T02:11:53.604Z,7.71
2022-11-28T02:14:28.917Z,7.73
2022-11-28T02:17:16.913Z,7.76
2022-11-28T02:19:57.954Z,7.79
2022-11-28T02:22:58.496Z,7.78
2022-11-28T02:25:49.825Z,7.78
2022-11-28T02:29:01.293Z,7.83
2022-11-28T02:32:10.364Z,7.75
2022-11-28T02:34:56.645Z,7.78
2022-11-28T02:37:34.774Z,7.86
2022-11-28T02:40:24.354Z,7.89
2022-11-28T02:43:23.295Z,7.90
2022-11-28T02:46:01.981Z,7.89
2022-11-28T02:48:41.472Z,7.91
2022-11-28T02:51:17.058Z,7.89
2022-11-28T02:53:46.359Z,7.91
2022-11-28T02:56:13.148Z,7.92
2022-11-28T02:58:39.877Z,7.91
2022-11-28T03:01:12.778Z,7.92
2022-11-28T03:03:53.462Z,7.96
2022-11-28T03:07:07.044Z,7.96
2022-11-28T03:10:13.737Z,7.99
2022-11-28T03:13:01.799Z,8.03
2022-11-28T03:15:43.097Z,8.06
2022-11-28T03:18:20.230Z,8.05
2022-11-28T03:21:30.116Z,8.02
2022-11-28T03:24:12.496Z,8.05
2022-11-28T03:26:56.688Z,8.08
2022-11-28T03:29:35.246Z,8.12
2022-11-28T03:32:06.817Z,8.13
2022-11-28T03:34:38.075Z,8.12
2022-11-28T03:37:11.388Z,8.16
2022-11-28T03:39:42.212Z,8.18
2022-11-28T03:42:17.241Z,8.20
2022-11-28T03:45:08.696Z,8.22
2022-11-28T03:47:41.070Z,8.23
2022-11-28T03:50:17.301Z,8.26
2022-11-28T03:52:51.320Z,8.24
2022-11-28T03:55:23.806Z,8.25
2022-11-28T03:57:59.970Z,8.25
2022-11-28T04:00:27.040Z,8.26
2022-11-28T04:03:16.722Z,8.28
2022-11-28T04:05:52.463Z,8.29
2022-11-28T04:08:24.416Z,8.19
2022-11-28T04:11:01.213Z,8.22
2022-11-28T04:13:35.263Z,8.22
2022-11-28T04:16:18.857Z,8.24
2022-11-28T04:18:55.238Z,8.28
2022-11-28T04:22:14.775Z,8.32
2022-11-28T04:24:51.331Z,8.27
2022-11-28T04:27:23.355Z,8.19
2022-11-28T04:29:58.461Z,8.22
2022-11-28T04:32:26.945Z,8.23
2022-11-28T04:34:59.438Z,8.29
2022-11-28T04:37:28.514Z,8.21
2022-11-28T04:39:56.576Z,8.22
2022-11-28T04:42:52.863Z,8.24
2022-11-28T04:45:27.365Z,8.26
2022-11-28T04:47:54.363Z,8.29
2022-11-28T04:50:25.178Z,8.33
2022-11-28T04:53:00.326Z,8.34
2022-11-28T04:55:44.202Z,8.34
2022-11-28T04:58:16.576Z,8.37
2022-11-28T05:00:45.505Z,8.35
2022-11-28T05:03:12.492Z,8.32
2022-11-28T05:05:50.538Z,8.28
2022-11-28T05:08:18.371Z,8.32
2022-11-28T05:10:45.613Z,8.25
2022-11-28T05:13:12.031Z,8.30
2022-11-28T05:15:38.616Z,8.32
2022-11-28T05:18:05.635Z,8.30
2022-11-28T05:20:33.113Z,8.33
2022-11-28T05:22:59.580Z,8.36
2022-11-28T05:25:26.123Z,8.37
2022-11-28T05:27:52.992Z,8.37
2022-11-28T05:30:19.395Z,8.35
2022-11-28T05:32:45.771Z,8.32
2022-11-28T05:35:12.213Z,8.32
2022-11-28T05:37:38.985Z,8.38
2022-11-28T05:40:07.510Z,8.41
2022-11-28T05:42:35.595Z,8.39
2022-11-28T05:45:02.461Z,8.39
2022-11-28T05:47:33.268Z,8.35
2022-11-28T05:50:00.041Z,8.40
2022-11-28T05:52:29.591Z,8.41
2022-11-28T05:54:55.973Z,8.39
2022-11-28T05:57:22.385Z,8.41
2022-11-28T05:59:48.823Z,8.41
2022-11-28T06:02:15.250Z,8.42
2022-11-28T06:04:41.878Z,8.44
2022-11-28T06:07:08.661Z,8.44
2022-11-28T06:09:35.044Z,8.41
2022-11-28T06:12:01.684Z,8.39
2022-11-28T06:14:28.124Z,8.42
2022-11-28T06:16:54.530Z,8.43
2022-11-28T06:19:20.911Z,8.39
2022-11-28T06:21:49.764Z,8.39
2022-11-28T06:24:16.120Z,8.40
2022-11-28T06:26:42.571Z,8.39
2022-11-28T06:29:08.989Z,8.39
2022-11-28T06:31:35.545Z,8.40
2022-11-28T06:34:01.959Z,8.40
2022-11-28T06:36:28.433Z,8.44
2022-11-28T06:38:54.822Z,8.47
2022-11-28T06:41:22.813Z,8.46
2022-11-28T06:43:49.563Z,8.48
2022-11-28T06:46:19.016Z,8.46
2022-11-28T06:48:46.926Z,8.48
2022-11-28T06:51:13.765Z,8.51
2022-11-28T06:53:40.668Z,8.49
2022-11-28T06:56:10.024Z,8.49
2022-11-28T06:58:36.910Z,8.52
2022-11-28T07:01:12.446Z,8.53
2022-11-28T07:03:39.601Z,8.54
2022-11-28T07:06:07.182Z,8.51
2022-11-28T07:08:34.131Z,8.51
2022-11-28T07:11:08.591Z,8.52
2022-11-28T07:13:35.731Z,8.50
2022-11-28T07:16:02.084Z,8.53
2022-11-28T07:18:28.468Z,8.50
2022-11-28T07:20:54.914Z,8.47
2022-11-28T07:23:21.312Z,8.40
2022-11-28T07:25:47.706Z,8.45
2022-11-28T07:28:14.063Z,8.46
2022-11-28T07:30:40.586Z,8.49
2022-11-28T07:33:06.960Z,8.51
2022-11-28T07:35:34.471Z,8.51
2022-11-28T07:38:00.886Z,8.51
2022-11-28T07:40:27.360Z,8.50
2022-11-28T07:42:53.769Z,8.49
2022-11-28T07:45:20.267Z,8.47
2022-11-28T07:47:46.685Z,8.50
2022-11-28T07:50:13.028Z,8.51
2022-11-28T07:52:39.433Z,8.53
2022-11-28T07:55:06.256Z,8.55
2022-11-28T07:57:32.863Z,8.58
2022-11-28T07:59:59.311Z,8.53
2022-11-28T08:02:27.219Z,8.54
2022-11-28T08:04:55.394Z,8.55
2022-11-28T08:07:22.138Z,8.48
2022-11-28T08:09:48.632Z,8.46
2022-11-28T08:12:14.984Z,8.44
2022-11-28T08:14:41.584Z,8.48
2022-11-28T08:17:08.314Z,8.50
2022-11-28T08:19:35.645Z,8.49
2022-11-28T08:22:02.378Z,8.52
2022-11-28T08:24:28.739Z,8.52
2022-11-28T08:26:55.156Z,8.48
2022-11-28T08:29:21.574Z,8.54
2022-11-28T08:31:48.107Z,8.51
2022-11-28T08:34:14.615Z,8.58
2022-11-28T08:36:41.498Z,8.61
2022-11-28T08:39:24.776Z,8.63
2022-11-28T08:41:52.982Z,8.69
2022-11-28T08:44:19.377Z,8.64
2022-11-28T08:46:45.827Z,8.60
2022-11-28T08:49:12.204Z,8.54
2022-11-28T08:51:38.607Z,8.51
2022-11-28T08:54:05.173Z,8.57
2022-11-28T08:56:31.652Z,8.59
2022-11-28T08:58:58.055Z,8.61
2022-11-28T09:01:26.461Z,8.64
2022-11-28T09:03:54.509Z,8.62
2022-11-28T09:06:22.221Z,8.66
2022-11-28T09:08:49.624Z,8.68
2022-11-28T09:11:18.119Z,8.70
2022-11-28T09:13:44.708Z,8.67
2022-11-28T09:16:11.463Z,8.68
2022-11-28T09:18:37.921Z,8.73
2022-11-28T09:21:10.106Z,8.75
2022-11-28T09:23:38.615Z,8.79
2022-11-28T09:26:09.416Z,8.82
2022-11-28T09:28:35.889Z,8.83
2022-11-28T09:31:04.022Z,8.84
2022-11-28T09:33:30.752Z,8.84
2022-11-28T09:35:58.263Z,8.81
2022-11-28T09:38:25.884Z,8.84
2022-11-28T09:40:52.659Z,8.82
2022-11-28T09:43:35.528Z,8.86
2022-11-28T09:46:05.991Z,8.84
2022-11-28T09:48:42.007Z,8.90
2022-11-28T09:51:28.203Z,8.98
2022-11-28T09:54:12.324Z,9.03
2022-11-28T09:56:39.792Z,9.03
2022-11-28T09:59:33.922Z,9.05
2022-11-28T10:02:09.581Z,9.02
2022-11-28T10:04:45.128Z,9.02
2022-11-28T10:07:28.192Z,9.03
2022-11-28T10:10:03.605Z,8.99
2022-11-28T10:12:50.200Z,9.01
2022-11-28T10:15:42.669Z,9.06
2022-11-28T10:18:26.416Z,9.07
2022-11-28T10:20:57.854Z,9.10
2022-11-28T10:23:34.969Z,9.11
2022-11-28T10:26:29.025Z,9.13
2022-11-28T10:29:01.693Z,9.16
2022-11-28T10:31:41.401Z,9.15
2022-11-28T10:34:29.952Z,9.19
2022-11-28T10:37:14.616Z,9.21
2022-11-28T10:39:44.449Z,9.24
2022-11-28T10:42:27.289Z,9.27
2022-11-28T10:45:13.727Z,9.27
2022-11-28T10:51:16.044Z,9.26
2022-11-28T10:53:57.636Z,9.30
2022-11-28T10:56:56.264Z,9.32
2022-11-28T10:59:36.815Z,9.35
2022-11-28T11:02:46.045Z,9.34
2022-11-28T11:05:34.373Z,9.37
2022-11-28T11:08:22.412Z,9.38
2022-11-28T11:10:52.604Z,9.40
2022-11-28T11:13:27.718Z,9.40
2022-11-28T11:16:10.806Z,9.40
2022-11-28T11:18:43.313Z,9.39
2022-11-28T11:21:16.894Z,9.39
2022-11-28T11:23:44.781Z,9.41
2022-11-28T11:26:24.963Z,9.46
2022-11-28T11:28:52.186Z,9.48
2022-11-28T11:31:29.623Z,9.49
2022-11-28T11:34:23.709Z,9.47
2022-11-28T11:36:51.417Z,9.48
2022-11-28T11:39:25.504Z,9.52
2022-11-28T11:42:11.420Z,9.54
2022-11-28T11:44:37.944Z,9.56
2022-11-28T11:47:09.499Z,9.62
2022-11-28T11:49:42.569Z,9.68
2022-11-28T11:52:15.212Z,9.71
2022-11-28T11:54:56.732Z,9.77
2022-11-28T11:57:37.838Z,9.83
2022-11-28T12:00:27.286Z,9.90
2022-11-28T12:03:04.535Z,9.93
2022-11-28T12:06:13.171Z,9.98
2022-11-28T12:08:55.408Z,10.00
2022-11-28T12:11:24.208Z,10.02
2022-11-28T12:13:52.000Z,9.99
2022-11-28T12:16:52.563Z,9.97
2022-11-28T12:19:37.419Z,9.97
2022-11-28T12:22:24.839Z,9.99
2022-11-28T12:25:15.386Z,10.00
2022-11-28T12:28:06.234Z,10.03
2022-11-28T12:30:58.727Z,10.03
2022-11-28T12:33:38.976Z,10.04
2022-11-28T12:36:36.387Z,10.06
2022-11-28T12:39:49.028Z,10.08
2022-11-28T12:42:28.182Z,10.07
2022-11-28T12:45:18.655Z,10.10
2022-11-28T12:47:44.981Z,10.10
2022-11-28T12:50:33.399Z,10.09
2022-11-28T12:53:25.942Z,10.10
2022-11-28T12:56:15.617Z,10.10
2022-11-28T12:58:56.693Z,10.10
2022-11-28T13:01:56.611Z,10.09
2022-11-28T13:04:55.162Z,10.11
2022-11-28T13:07:38.849Z,10.12
2022-11-28T13:10:22.758Z,10.13
2022-11-28T13:12:54.675Z,10.14
2022-11-28T13:15:39.095Z,10.15
2022-11-28T13:18:51.972Z,10.16
2022-11-28T13:21:27.532Z,10.15
2022-11-28T13:24:07.546Z,10.15
2022-11-28T13:26:50.892Z,10.15
2022-11-28T13:29:30.728Z,10.16
2022-11-28T13:32:07.173Z,10.19
2022-11-28T13:34:34.893Z,10.19
2022-11-28T13:40:17.798Z,10.20
2022-11-28T13:43:07.998Z,10.20
2022-11-28T13:45:39.364Z,10.22
2022-11-28T13:48:57.563Z,10.24
2022-11-28T13:51:30.840Z,10.25
2022-11-28T13:54:20.184Z,10.27
2022-11-28T13:57:02.161Z,10.28
2022-11-28T13:59:30.659Z,10.29
2022-11-28T14:02:00.884Z,10.30
2022-11-28T14:04:29.501Z,10.30
2022-11-28T14:07:04.133Z,10.30
2022-11-28T14:09:44.578Z,10.30
2022-11-28T14:12:26.010Z,10.31
2022-11-28T14:15:07.888Z,10.31
2022-11-28T14:17:53.901Z,10.30
2022-11-28T14:20:42.775Z,10.30
2022-11-28T14:23:17.908Z,10.29
2022-11-28T14:25:52.319Z,10.30
2022-11-28T14:28:36.477Z,10.32
2022-11-28T14:31:30.836Z,10.32
2022-11-28T14:34:03.727Z,10.33
2022-11-28T14:36:36.087Z,10.31
2022-11-28T14:39:14.531Z,10.30
2022-11-28T14:42:51.921Z,10.29
2022-11-28T14:45:42.018Z,10.30
2022-11-28T14:48:19.528Z,10.29
2022-11-28T14:50:53.410Z,10.31
2022-11-28T14:53:36.214Z,10.29
2022-11-28T14:56:11.521Z,10.26
2022-11-28T14:58:38.624Z,10.25
2022-11-28T15:01:14.145Z,10.26
2022-11-28T15:03:56.886Z,10.28
2022-11-28T15:06:35.051Z,10.28
2022-11-28T15:09:17.516Z,10.28
2022-11-28T15:12:11.469Z,10.26
2022-11-28T15:14:40.151Z,10.25
2022-11-28T15:17:12.057Z,10.26
2022-11-28T15:19:49.371Z,10.25
2022-11-28T15:22:46.702Z,10.21
2022-11-28T15:25:25.778Z,10.21
2022-11-28T15:27:53.643Z,10.19
2022-11-28T15:30:23.802Z,10.18
2022-11-28T15:32:58.822Z,10.14
2022-11-28T15:35:26.128Z,10.12
2022-11-28T15:37:58.122Z,10.12
2022-11-28T15:40:36.208Z,10.13
2022-11-28T15:43:09.597Z,10.09
2022-11-28T15:45:42.155Z,10.08
2022-11-28T15:48:26.969Z,10.05
2022-11-28T15:50:53.488Z,10.04
2022-11-28T15:53:20.942Z,10.03
2022-11-28T15:55:47.750Z,10.02
2022-11-28T15:58:25.309Z,10.02
2022-11-28T16:00:57.271Z,10.01
2022-11-28T16:03:27.759Z,9.99
2022-11-28T16:05:57.249Z,9.99
2022-11-28T16:08:40.417Z,9.96
2022-11-28T16:11:10.145Z,9.94
2022-11-28T16:13:39.060Z,9.90
2022-11-28T16:16:12.435Z,9.88
2022-11-28T16:18:45.529Z,9.89
2022-11-28T16:21:13.982Z,9.87
2022-11-28T16:23:41.283Z,9.87
2022-11-28T16:26:29.255Z,9.87
2022-11-28T16:29:15.919Z,9.89
2022-11-28T16:31:44.418Z,9.87
2022-11-28T16:34:14.820Z,9.84
2022-11-28T16:36:43.967Z,9.85
2022-11-28T16:39:10.287Z,9.88
2022-11-28T16:41:39.269Z,9.89
2022-11-28T16:44:12.524Z,9.91
2022-11-28T16:46:48.879Z,9.89
2022-11-28T16:49:35.694Z,9.87
2022-11-28T16:52:20.918Z,9.89
2022-11-28T16:54:51.794Z,9.89
2022-11-28T16:57:20.243Z,9.93
2022-11-28T16:59:48.223Z,9.93
2022-11-28T17:02:23.240Z,9.96
2022-11-28T17:04:51.865Z,9.97
2022-11-28T17:07:23.231Z,9.96
2022-11-28T17:09:50.542Z,9.96
2022-11-28T17:12:23.067Z,9.93
2022-11-28T17:14:49.511Z,9.93
2022-11-28T17:17:17.727Z,9.95
2022-11-28T17:19:44.857Z,9.96
2022-11-28T17:22:15.536Z,9.96
2022-11-28T17:24:42.647Z,9.96
2022-11-28T17:27:12.290Z,9.97
2022-11-28T17:29:39.551Z,9.96
2022-11-28T17:32:06.739Z,9.95
2022-11-28T17:34:34.284Z,9.95
2022-11-28T17:37:02.220Z,9.96
2022-11-28T17:39:29.608Z,9.95
2022-11-28T17:41:57.319Z,9.96
2022-11-28T17:44:25.326Z,9.96
2022-11-28T17:46:55.096Z,9.94
2022-11-28T17:49:22.640Z,9.94
2022-11-28T17:51:50.419Z,9.93
2022-11-28T17:54:19.283Z,9.90
2022-11-28T17:56:47.839Z,9.86
2022-11-28T17:59:19.355Z,9.81
2022-11-28T18:01:46.718Z,9.81
2022-11-28T18:04:13.238Z,9.76
2022-11-28T18:06:46.389Z,9.72
2022-11-28T18:09:13.572Z,9.70
2022-11-28T18:11:41.100Z,9.69
2022-11-28T18:14:08.570Z,9.67
2022-11-28T18:16:40.093Z,9.67
2022-11-28T18:19:06.951Z,9.69
2022-11-28T18:21:33.742Z,9.66
2022-11-28T18:24:00.688Z,9.64
2022-11-28T18:26:27.748Z,9.65
2022-11-28T18:28:54.392Z,9.64
2022-11-28T18:31:23.566Z,9.66
2022-11-28T18:33:50.945Z,9.68
2022-11-28T18:36:26.428Z,9.69
2022-11-28T18:38:57.451Z,9.71
2022-11-28T18:41:24.553Z,9.71
2022-11-28T18:44:04.597Z,9.72
2022-11-28T18:46:33.091Z,9.72
2022-11-28T18:48:59.714Z,9.69
2022-11-28T18:51:29.081Z,9.66
2022-11-28T18:53:56.854Z,9.64
2022-11-28T18:56:24.286Z,9.64
2022-11-28T18:58:52.609Z,9.63
2022-11-28T19:01:28.548Z,9.62
2022-11-28T19:03:57.836Z,9.61
2022-11-28T19:06:24.841Z,9.59
2022-11-28T19:08:57.120Z,9.57
2022-11-28T19:11:24.736Z,9.54
2022-11-28T19:13:53.318Z,9.51
2022-11-28T19:16:22.609Z,9.51
2022-11-28T19:18:49.352Z,9.49
2022-11-28T19:21:21.775Z,9.51
2022-11-28T19:23:49.052Z,9.46
2022-11-28T19:26:18.792Z,9.46
2022-11-28T19:28:45.734Z,9.43
2022-11-28T19:31:21.168Z,9.43
2022-11-28T19:34:01.281Z,9.40
2022-11-28T19:36:32.719Z,9.40
2022-11-28T19:39:00.141Z,9.37
2022-11-28T19:41:28.046Z,9.36
2022-11-28T19:43:55.748Z,9.31
2022-11-28T19:46:22.257Z,9.31
2022-11-28T19:48:51.063Z,9.31
2022-11-28T19:51:19.886Z,9.31
2022-11-28T19:53:46.616Z,9.28
2022-11-28T19:56:16.081Z,9.28
2022-11-28T19:58:43.746Z,9.28
2022-11-28T20:01:22.346Z,9.25
2022-11-28T20:03:52.559Z,9.21
2022-11-28T20:06:26.542Z,9.19
2022-11-28T20:08:54.792Z,9.18
2022-11-28T20:11:25.691Z,9.23
2022-11-28T20:14:01.644Z,9.30
2022-11-28T20:16:30.940Z,9.27
2022-11-28T20:19:00.441Z,9.23
2022-11-28T20:21:28.228Z,9.18
2022-11-28T20:23:58.152Z,9.15
2022-11-28T20:26:26.793Z,9.13
2022-11-28T20:28:55.314Z,9.15
2022-11-28T20:31:26.808Z,9.16
2022-11-28T20:33:54.200Z,9.18
2022-11-28T20:36:23.882Z,9.17
2022-11-28T20:38:52.031Z,9.17
2022-11-28T20:41:20.472Z,9.18
2022-11-28T20:43:47.595Z,9.19
2022-11-28T20:46:35.399Z,9.21
2022-11-28T20:49:04.436Z,9.21
2022-11-28T20:51:32.491Z,9.20
2022-11-28T20:54:00.145Z,9.20
2022-11-28T20:56:29.618Z,9.21
2022-11-28T20:59:00.450Z,9.22
2022-11-28T21:01:30.000Z,9.21
2022-11-28T21:03:57.233Z,9.23
2022-11-28T21:06:23.687Z,9.22
2022-11-28T21:08:50.139Z,9.21
2022-11-28T21:11:43.484Z,9.20
2022-11-28T21:14:06.413Z,9.20
2022-11-28T21:16:33.945Z,9.19
2022-11-28T21:19:07.316Z,9.21
2022-11-28T21:21:35.618Z,9.20
2022-11-28T21:24:05.986Z,9.19
2022-11-28T21:26:39.131Z,9.18
2022-11-28T21:29:09.115Z,9.15
2022-11-28T21:31:39.215Z,9.12
2022-11-28T21:34:05.778Z,9.14
2022-11-28T21:36:32.458Z,9.14
2022-11-28T21:39:00.512Z,9.16
2022-11-28T21:41:29.766Z,9.17
2022-11-28T21:43:56.986Z,9.18
2022-11-28T21:46:23.918Z,9.21
2022-11-28T21:48:50.545Z,9.22
2022-11-28T21:51:25.232Z,9.22
2022-11-28T21:53:52.137Z,9.24
2022-11-28T21:56:19.002Z,9.25
2022-11-28T21:58:45.651Z,9.23
2022-11-28T22:01:14.295Z,9.24
2022-11-28T22:03:43.548Z,9.22
2022-11-28T22:06:17.885Z,9.20
2022-11-28T22:08:44.613Z,9.21
2022-11-28T22:11:13.172Z,9.22
2022-11-28T22:13:42.149Z,9.24
2022-11-28T22:16:18.388Z,9.22
2022-11-28T22:18:46.444Z,9.22
2022-11-28T22:21:49.937Z,9.23
2022-11-28T22:23:59.427Z,9.25
2022-11-28T22:26:26.089Z,9.26
2022-11-28T22:28:53.842Z,9.27
2022-11-28T22:31:22.559Z,9.27
2022-11-28T22:33:50.118Z,9.28
2022-11-28T22:36:19.481Z,9.30
2022-11-28T22:38:47.924Z,9.32
2022-11-28T22:41:19.796Z,9.32
2022-11-28T22:43:54.389Z,9.31
2022-11-28T22:46:20.934Z,9.28
2022-11-28T22:48:47.905Z,9.27
2022-11-28T22:51:19.740Z,9.27
2022-11-28T22:53:46.104Z,9.28
2022-11-28T22:56:15.557Z,9.31
2022-11-28T22:58:44.614Z,9.30
2022-11-28T23:01:17.361Z,9.30
2022-11-28T23:03:44.397Z,9.30
2022-11-28T23:06:13.789Z,9.31
2022-11-28T23:08:40.443Z,9.34
2022-11-28T23:11:12.778Z,9.36
2022-11-28T23:13:40.142Z,9.36
2022-11-28T23:16:37.608Z,9.39
2022-11-28T23:19:11.911Z,9.40
2022-11-28T23:21:40.700Z,9.39
2022-11-28T23:24:15.012Z,9.39
2022-11-28T23:26:44.123Z,9.38
2022-11-28T23:29:13.050Z,9.37
2022-11-28T23:31:42.014Z,9.37
2022-11-28T23:34:09.428Z,9.37
2022-11-28T23:36:43.241Z,9.37
2022-11-28T23:39:13.647Z,9.37
2022-11-28T23:41:40.864Z,9.37
2022-11-28T23:44:07.634Z,9.39
2022-11-28T23:46:34.489Z,9.36
2022-11-28T23:49:00.857Z,9.35
2022-11-28T23:51:27.236Z,9.33
2022-11-28T23:53:53.897Z,9.31
2022-11-28T23:56:23.495Z,9.32
2022-11-28T23:58:50.876Z,9.30
